KLHB

Details ICAO KLHB
Name HEARNE MUNI
Region United States
Timezone America/Chicago (UTC-6.0)
Plans Departing 1
Arriving 5
Stats Elevation 285 ft / 87 m (AMSL)
Location 30.871831° -96.622228°
Runways 1
Magnetic Variation 3.205° E
Sunrise 2017-12-16 13:19:03 UTC / 2017-12-16 07:19:03 Local
Sunset 2017-12-16 23:28:13 UTC / 2017-12-16 17:28:13 Local
Advertisement - Login to hide

Runways

ID Width Length Bearing (true) Bearing (mag) Surface Threshold Offset Overrun Length
18 75 ft / 23 m 4,012 ft / 1,223 m 180.00° 176.80° Asphalt 0 ft / 0 m 1,140 ft / 347 m
36 75 ft / 23 m 4,012 ft / 1,223 m 0.00° 356.80° Asphalt 0 ft / 0 m 2,160 ft / 658 m

Map

Weather


0- 5 10 15 20 25 30 35+ Temperature / ° C

Clouds and Precipitation
Forecast for 2017-12-16 12:00 UTC. Updated 2 hours ago

Ground ~20,000 ft ~40,000 ft Winds

METAR

KLHB 161255Z AUTO 00000KT 10SM CLR 03/01 A3020 RMK AO2 T00320010

TAF

Not found

Frequencies

Recorded 118.67 MHz AWOS 3
Unicom 122.90 MHz CTAF
Warning: Do not use this data for real-world aviation or navigation. No guarantee of current accuracy is given.